Time;durP1;ratioP1;P1;durP2;ratioP2;P2;SDS_P1;SDS_P2;PMS_P1;PMS_P2;Temp;Humidity;BMP_temperature;BMP_pressure;BME280_temperature;BME280_humidity;BME280_pressure;Samples;Min_cycle;Max_cycle;Signal;HPM_P1;HPM_P2
2022/11/09 00:00:32;;;;;;;0.70;0.25;;;11.30;99.90;;;;;;5055703;28;20060;-88
2022/11/09 00:02:58;;;;;;;0.00;0.00;;;11.60;99.90;;;;;;5038524;28;20100;-87
2022/11/09 00:05:23;;;;;;;0.00;0.00;;;11.40;99.90;;;;;;5072669;28;20296;-87
2022/11/09 00:07:49;;;;;;;0.00;0.00;;;12.40;99.90;;;;;;5073219;28;20036;-87
2022/11/09 00:10:14;;;;;;;0.52;0.40;;;11.30;99.90;;;;;;5055491;28;20041;-87
2022/11/09 00:12:40;;;;;;;0.77;0.65;;;11.60;99.90;;;;;;5073117;28;20032;-86
2022/11/09 00:15:06;;;;;;;0.10;0.10;;;11.20;99.90;;;;;;5072876;28;20021;-87
2022/11/09 00:17:32;;;;;;;0.10;0.10;;;11.20;99.90;;;;;;5072556;28;20029;-87
2022/11/09 00:19:57;;;;;;;0.00;0.00;;;12.10;99.90;;;;;;5055443;28;20067;-86
2022/11/09 00:22:23;;;;;;;0.10;0.03;;;12.20;99.90;;;;;;5072833;28;20032;-87
2022/11/09 00:24:49;;;;;;;10.80;0.88;;;11.20;99.90;;;;;;5055349;28;20081;-87
2022/11/09 00:27:14;;;;;;;0.00;0.00;;;11.60;99.90;;;;;;5038952;28;20049;-87
2022/11/09 00:29:40;;;;;;;0.20;0.13;;;11.90;99.90;;;;;;5054860;28;20037;-87
2022/11/09 00:32:06;;;;;;;0.10;0.10;;;11.20;99.90;;;;;;5072291;28;20045;-87
2022/11/09 00:34:32;;;;;;;0.20;0.20;;;11.50;99.90;;;;;;5054466;28;20065;-87
2022/11/09 00:36:57;;;;;;;0.00;0.00;;;12.00;99.90;;;;;;5072070;28;20037;-87
2022/11/09 00:39:23;;;;;;;0.00;0.00;;;11.00;99.90;;;;;;5073866;28;20045;-86
2022/11/09 00:41:49;;;;;;;0.00;0.00;;;10.80;99.90;;;;;;5055225;28;20046;-87
2022/11/09 00:44:14;;;;;;;0.40;0.17;;;11.30;99.90;;;;;;5038797;28;20046;-88
2022/11/09 00:46:40;;;;;;;0.10;0.10;;;10.70;99.90;;;;;;5056652;28;20045;-87
2022/11/09 00:49:06;;;;;;;5.97;1.13;;;10.60;99.90;;;;;;5055604;28;20037;-87
2022/11/09 00:51:33;;;;;;;0.00;0.00;;;10.60;99.90;;;;;;5055211;28;20097;-87
2022/11/09 00:53:58;;;;;;;0.10;0.10;;;10.70;99.90;;;;;;5072040;28;20053;-87
2022/11/09 00:56:24;;;;;;;0.00;0.00;;;11.30;99.90;;;;;;5054794;28;20040;-88
2022/11/09 00:58:53;;;;;;;0.00;0.00;;;11.00;99.90;;;;;;5037790;28;20057;-87
2022/11/09 01:01:19;;;;;;;0.13;0.10;;;11.30;99.90;;;;;;5061653;28;20105;-88
2022/11/09 01:03:45;;;;;;;0.10;0.10;;;10.90;99.90;;;;;;5033759;28;20080;-86
2022/11/09 01:06:24;;;;;;;0.00;0.00;;;11.20;99.90;;;;;;5017236;28;20090;-87
2022/11/09 01:08:51;;;;;;;0.55;0.38;;;10.90;99.90;;;;;;5035077;28;20093;-87
2022/11/09 01:11:18;;;;;;;0.00;0.00;;;10.90;99.90;;;;;;5034213;28;20045;-87
2022/11/09 01:13:44;;;;;;;4.07;1.00;;;11.80;99.90;;;;;;5034669;28;20103;-87
2022/11/09 01:16:15;;;;;;;0.22;0.22;;;10.70;99.90;;;;;;5034924;28;20042;-86
2022/11/09 01:18:41;;;;;;;0.15;0.15;;;11.20;99.90;;;;;;5017814;28;20046;-87
2022/11/09 01:21:10;;;;;;;0.90;0.43;;;11.20;99.90;;;;;;5034425;28;20057;-87
2022/11/09 01:23:39;;;;;;;0.30;0.05;;;12.30;99.90;;;;;;5018285;28;20057;-86
2022/11/09 01:26:09;;;;;;;0.08;0.08;;;11.30;99.90;;;;;;5035728;28;20053;-87
2022/11/09 01:28:35;;;;;;;0.00;0.00;;;11.30;99.90;;;;;;5045088;28;20056;-86
2022/11/09 01:31:11;;;;;;;0.00;0.00;;;11.80;99.90;;;;;;5055835;28;20042;-86
2022/11/09 01:33:37;;;;;;;0.00;0.00;;;11.10;99.90;;;;;;5054314;28;20033;-86
2022/11/09 01:36:12;;;;;;;0.00;0.00;;;11.10;99.90;;;;;;5037995;28;20036;-86
2022/11/09 01:38:39;;;;;;;0.00;0.00;;;11.00;99.90;;;;;;5054793;28;20025;-87
2022/11/09 01:41:06;;;;;;;0.93;0.40;;;10.90;99.90;;;;;;5053658;28;20042;-86
2022/11/09 01:43:33;;;;;;;0.10;0.00;;;11.60;99.90;;;;;;5052971;28;20057;-86
2022/11/09 01:46:05;;;;;;;12.70;0.45;;;10.90;99.90;;;;;;5053875;28;20025;-86
2022/11/09 01:48:46;;;;;;;0.32;0.20;;;10.90;99.90;;;;;;5053407;28;20041;-86
2022/11/09 01:51:18;;;;;;;0.00;0.00;;;10.90;99.90;;;;;;5054101;28;20045;-86
2022/11/09 01:53:47;;;;;;;0.00;0.00;;;11.70;99.90;;;;;;5055055;28;20025;-87
2022/11/09 01:56:14;;;;;;;0.03;0.03;;;11.80;99.90;;;;;;5053530;28;20057;-86
2022/11/09 01:58:49;;;;;;;0.75;0.47;;;11.60;99.90;;;;;;5070927;28;20056;-87
2022/11/09 02:01:16;;;;;;;0.10;0.10;;;11.30;99.90;;;;;;5054846;28;20038;-86
2022/11/09 02:03:56;;;;;;;0.57;0.38;;;12.10;99.90;;;;;;5070193;28;20054;-86
2022/11/09 02:06:26;;;;;;;0.00;0.00;;;12.00;99.90;;;;;;5053817;28;20056;-86
2022/11/09 02:08:54;;;;;;;1.00;0.43;;;12.40;99.90;;;;;;5053819;28;20105;-86
2022/11/09 02:11:22;;;;;;;0.00;0.00;;;11.30;99.90;;;;;;5045962;28;20037;-86
2022/11/09 02:13:53;;;;;;;0.00;0.00;;;11.20;99.90;;;;;;5034671;28;20026;-88
2022/11/09 02:16:19;;;;;;;0.65;0.47;;;12.00;99.90;;;;;;5033455;28;20037;-88
2022/11/09 02:18:53;;;;;;;0.03;0.03;;;11.80;99.90;;;;;;5034875;28;20048;-87
2022/11/09 02:21:21;;;;;;;0.00;0.00;;;12.00;99.90;;;;;;5032831;28;20080;-86
2022/11/09 02:23:46;;;;;;;0.00;0.00;;;11.00;99.90;;;;;;5033341;28;20033;-86
2022/11/09 02:26:19;;;;;;;0.05;0.05;;;11.00;99.90;;;;;;5032444;28;20038;-85
2022/11/09 02:28:47;;;;;;;0.13;0.13;;;11.00;99.90;;;;;;5047909;28;20041;-86
2022/11/09 02:31:15;;;;;;;0.55;0.55;;;10.90;99.90;;;;;;5052671;28;20164;-87
2022/11/09 02:34:05;;;;;;;1.77;0.63;;;11.00;99.90;;;;;;5069535;28;20103;-86
2022/11/09 02:36:31;;;;;;;0.88;0.13;;;12.00;99.90;;;;;;5052603;28;20034;-86
2022/11/09 02:38:57;;;;;;;0.47;0.35;;;11.00;99.90;;;;;;5054459;28;20033;-87
2022/11/09 02:41:23;;;;;;;0.00;0.00;;;10.90;99.90;;;;;;5066167;28;20076;-86
2022/11/09 02:43:53;;;;;;;1.55;0.55;;;10.90;99.90;;;;;;5074938;28;20037;-86
2022/11/09 02:46:24;;;;;;;3.30;0.28;;;11.70;99.90;;;;;;5074756;28;20049;-86
2022/11/09 02:48:50;;;;;;;1.08;0.88;;;11.00;99.90;;;;;;5075354;28;20033;-86
2022/11/09 02:51:18;;;;;;;0.35;0.22;;;12.10;99.90;;;;;;5073956;28;20041;-86
2022/11/09 02:53:44;;;;;;;1.23;1.00;;;10.80;71.70;;;;;;5041179;28;20045;-86
2022/11/09 02:58:45;;;;;;;0.00;0.00;;;11.20;38.70;;;;;;5084352;22;20033;-95
2022/11/09 03:01:10;;;;;;;0.00;0.00;;;12.60;1.00;;;;;;5059001;28;20045;-96
2022/11/09 03:03:36;;;;;;;0.22;0.20;;;11.20;2.00;;;;;;5043404;28;20017;-96
2022/11/09 03:06:02;;;;;;;0.10;0.10;;;11.20;12.40;;;;;;5043701;28;20017;-95
2022/11/09 03:08:28;;;;;;;0.35;0.35;;;11.10;20.10;;;;;;5059693;28;20019;-95
2022/11/09 03:10:53;;;;;;;0.30;0.28;;;11.20;1.00;;;;;;5043235;28;20459;-95
2022/11/09 03:13:19;;;;;;;2.03;0.90;;;11.90;1.00;;;;;;5041709;28;20049;-96
2022/11/09 03:15:45;;;;;;;0.10;0.10;;;11.10;1.00;;;;;;5041931;28;20040;-95
2022/11/09 03:18:10;;;;;;;0.65;0.65;;;11.90;1.00;;;;;;5058229;28;20072;-95
2022/11/09 03:20:36;;;;;;;0.10;0.10;;;11.60;4.50;;;;;;5041561;28;20042;-95
2022/11/09 03:23:02;;;;;;;0.47;0.40;;;11.90;19.20;;;;;;5041777;28;20048;-95
2022/11/09 03:25:28;;;;;;;0.00;0.00;;;11.60;52.70;;;;;;5041526;28;20071;-95
2022/11/09 03:28:02;;;;;;;0.17;0.15;;;11.80;50.00;;;;;;5041764;28;20084;-95
2022/11/09 03:30:28;;;;;;;0.10;0.10;;;11.10;1.00;;;;;;5058423;28;20399;-95
2022/11/09 03:33:08;;;;;;;8.40;0.80;;;11.10;1.00;;;;;;5036089;22;20698;-74
2022/11/09 03:35:35;;;;;;;0.00;0.00;;;11.00;1.00;;;;;;5027030;28;20149;-76
2022/11/09 03:38:02;;;;;;;0.00;0.00;;;11.00;1.00;;;;;;5028390;28;20136;-74
2022/11/09 03:40:28;;;;;;;0.00;0.00;;;11.00;1.00;;;;;;5026570;28;20068;-73
2022/11/09 03:42:54;;;;;;;0.17;0.17;;;10.90;1.00;;;;;;5027033;28;20045;-75
2022/11/09 03:45:19;;;;;;;0.00;0.00;;;10.90;1.00;;;;;;5026289;28;20519;-73
2022/11/09 03:47:46;;;;;;;0.00;0.00;;;11.00;1.00;;;;;;5026895;28;20045;-72
2022/11/09 03:50:14;;;;;;;38.08;1.45;;;11.00;1.00;;;;;;5026413;28;20075;-73
2022/11/09 03:52:43;;;;;;;0.22;0.22;;;11.00;1.00;;;;;;5027377;28;20056;-74
2022/11/09 03:55:08;;;;;;;0.20;0.10;;;11.10;1.00;;;;;;5027198;28;20120;-74
2022/11/09 03:57:34;;;;;;;1.98;0.38;;;11.10;1.00;;;;;;5027125;28;20440;-73
2022/11/09 04:00:00;;;;;;;0.10;0.10;;;11.10;99.90;;;;;;5028314;28;20451;-74
2022/11/09 04:02:25;;;;;;;0.15;0.13;;;11.10;1.00;;;;;;5028499;28;20503;-74
2022/11/09 04:04:51;;;;;;;0.17;0.15;;;11.00;1.00;;;;;;5026626;28;20119;-73
2022/11/09 04:07:17;;;;;;;0.00;0.00;;;11.00;1.00;;;;;;5026639;28;20045;-72
2022/11/09 04:09:42;;;;;;;0.25;0.25;;;10.90;1.00;;;;;;5026099;28;20045;-73
2022/11/09 04:12:08;;;;;;;0.10;0.10;;;11.00;1.00;;;;;;5029402;28;20053;-74
2022/11/09 04:14:33;;;;;;;0.10;0.10;;;11.00;99.90;;;;;;5036456;28;20049;-73
2022/11/09 04:16:59;;;;;;;0.55;0.55;;;10.90;1.00;;;;;;5035656;28;20041;-75
2022/11/09 04:19:25;;;;;;;0.00;0.00;;;10.90;1.00;;;;;;5036434;28;20100;-75
2022/11/09 04:21:50;;;;;;;6.03;1.30;;;10.80;1.00;;;;;;5035809;28;20081;-73
2022/11/09 04:24:16;;;;;;;0.13;0.10;;;10.80;1.00;;;;;;5033424;28;20049;-74
2022/11/09 04:26:42;;;;;;;0.00;0.00;;;10.70;1.00;;;;;;5033330;28;20048;-73
2022/11/09 04:29:08;;;;;;;1.45;0.77;;;10.70;1.00;;;;;;5034721;28;20064;-73
2022/11/09 04:31:34;;;;;;;0.25;0.25;;;10.70;1.00;;;;;;5035236;28;20045;-74
2022/11/09 04:34:00;;;;;;;0.30;0.30;;;10.60;1.00;;;;;;5034750;28;20055;-74
2022/11/09 04:36:25;;;;;;;0.00;0.00;;;10.60;15.30;;;;;;5033366;28;20132;-73
2022/11/09 04:38:51;;;;;;;0.32;0.28;;;10.90;4.80;;;;;;5034291;28;20057;-73
2022/11/09 04:41:17;;;;;;;9.25;1.27;;;10.60;25.00;;;;;;5033389;28;20104;-74
2022/11/09 04:43:42;;;;;;;0.00;0.00;;;10.80;26.60;;;;;;5031910;28;20044;-76
2022/11/09 04:46:08;;;;;;;1.45;0.57;;;10.90;1.00;;;;;;5033729;28;20041;-73
2022/11/09 04:48:34;;;;;;;0.50;0.40;;;10.90;1.00;;;;;;5031261;28;20091;-73
2022/11/09 04:51:01;;;;;;;0.00;0.00;;;11.00;1.00;;;;;;5033855;28;20049;-75
2022/11/09 04:53:27;;;;;;;0.00;0.00;;;11.00;1.00;;;;;;5032167;28;20399;-73
2022/11/09 04:55:53;;;;;;;0.00;0.00;;;11.00;1.00;;;;;;5032274;28;20053;-74
2022/11/09 04:58:19;;;;;;;0.13;0.13;;;11.00;1.00;;;;;;5032115;28;20402;-74
2022/11/09 05:00:44;;;;;;;0.20;0.20;;;11.10;1.00;;;;;;5031363;28;20049;-74
2022/11/09 05:03:10;;;;;;;0.50;0.47;;;11.20;1.00;;;;;;5032626;28;20045;-75
2022/11/09 05:05:36;;;;;;;0.10;0.10;;;11.30;1.00;;;;;;5032045;28;20049;-75
2022/11/09 05:08:03;;;;;;;0.73;0.73;;;11.40;1.00;;;;;;5027648;28;20452;-75
2022/11/09 05:10:29;;;;;;;0.20;0.20;;;11.40;1.00;;;;;;5019721;28;20534;-74
2022/11/09 05:13:04;;;;;;;0.00;0.00;;;11.50;1.00;;;;;;5022224;28;20046;-74
2022/11/09 05:15:30;;;;;;;0.73;0.35;;;11.50;99.90;;;;;;5022686;28;20149;-72
2022/11/09 05:17:56;;;;;;;0.43;0.43;;;11.50;99.90;;;;;;5020621;28;20058;-76
2022/11/09 05:20:22;;;;;;;0.13;0.10;;;11.60;99.90;;;;;;5022638;28;20507;-75
2022/11/09 05:25:33;;;;;;;0.13;0.10;;;11.70;99.90;;;;;;5010642;28;20504;-75
2022/11/09 05:27:58;;;;;;;0.20;0.20;;;11.70;99.90;;;;;;5029578;28;20076;-74
2022/11/09 05:30:24;;;;;;;1.90;0.47;;;11.80;99.90;;;;;;5029679;28;20476;-75
2022/11/09 05:32:50;;;;;;;0.80;0.45;;;11.80;99.90;;;;;;5029048;28;20061;-76
2022/11/09 05:35:16;;;;;;;0.08;0.08;;;11.90;99.90;;;;;;5029580;28;20061;-74
2022/11/09 05:37:47;;;;;;;1.95;0.63;;;11.90;99.90;;;;;;5028842;28;20069;-75
2022/11/09 05:40:13;;;;;;;0.98;0.60;;;11.90;99.90;;;;;;5029564;28;20049;-74
2022/11/09 05:42:42;;;;;;;0.10;0.10;;;12.00;99.90;;;;;;5029449;28;20075;-73
2022/11/09 05:45:09;;;;;;;0.08;0.03;;;11.90;99.90;;;;;;5030447;28;20102;-74
2022/11/09 05:47:43;;;;;;;0.10;0.10;;;11.70;99.90;;;;;;5030957;28;20120;-74
2022/11/09 05:50:13;;;;;;;0.10;0.10;;;11.70;99.90;;;;;;5030801;28;20084;-74
2022/11/09 05:52:39;;;;;;;3.88;0.98;;;11.60;99.90;;;;;;5028300;28;20045;-74
2022/11/09 05:55:05;;;;;;;0.30;0.30;;;11.60;99.90;;;;;;5029715;28;20069;-74
2022/11/09 05:57:30;;;;;;;0.45;0.20;;;11.60;99.90;;;;;;5028801;28;20053;-73
2022/11/09 05:59:56;;;;;;;0.35;0.25;;;11.50;99.90;;;;;;5024241;28;20045;-74
2022/11/09 06:02:22;;;;;;;1.45;0.88;;;11.40;99.90;;;;;;5021623;28;20125;-73
2022/11/09 06:04:48;;;;;;;0.65;0.65;;;11.50;99.90;;;;;;5020451;28;20042;-73
2022/11/09 06:07:14;;;;;;;0.00;0.00;;;11.40;99.90;;;;;;5016223;28;20056;-74
2022/11/09 06:09:39;;;;;;;0.20;0.20;;;12.10;99.90;;;;;;5008835;28;20045;-74
2022/11/09 06:12:05;;;;;;;0.13;0.13;;;11.30;99.90;;;;;;5028035;28;20041;-74
2022/11/09 06:14:31;;;;;;;0.00;0.00;;;11.30;99.90;;;;;;5027491;28;20037;-73
2022/11/09 06:16:56;;;;;;;0.13;0.08;;;11.30;99.90;;;;;;5030065;28;20123;-73
2022/11/09 06:19:22;;;;;;;0.00;0.00;;;11.20;1.00;;;;;;5027585;28;20080;-73
2022/11/09 06:21:48;;;;;;;3.13;1.65;;;11.20;1.00;;;;;;5026998;28;20083;-75
2022/11/09 06:24:13;;;;;;;0.30;0.20;;;11.20;99.90;;;;;;5028194;28;20131;-75
2022/11/09 06:26:39;;;;;;;0.00;0.00;;;11.20;1.00;;;;;;5032076;28;20046;-74
2022/11/09 06:29:05;;;;;;;0.10;0.10;;;11.10;1.00;;;;;;5030318;28;20056;-74
2022/11/09 06:31:30;;;;;;;2.72;1.48;;;11.00;1.00;;;;;;5030532;28;20069;-73
2022/11/09 06:33:57;;;;;;;0.28;0.20;;;11.00;1.00;;;;;;5029510;28;20060;-74
2022/11/09 06:36:23;;;;;;;0.00;0.00;;;10.90;1.00;;;;;;5028213;28;20049;-74
2022/11/09 06:38:52;;;;;;;0.00;0.00;;;10.90;1.00;;;;;;5028088;28;20064;-73
2022/11/09 06:41:18;;;;;;;0.25;0.25;;;10.90;1.00;;;;;;5028869;28;20060;-75
2022/11/09 06:43:44;;;;;;;0.00;0.00;;;10.90;1.00;;;;;;5027377;28;20112;-74
2022/11/09 06:46:16;;;;;;;0.20;0.20;;;11.00;1.00;;;;;;5027886;28;20049;-75
2022/11/09 06:48:42;;;;;;;0.10;0.10;;;11.00;1.00;;;;;;5026824;28;20111;-74
2022/11/09 06:51:08;;;;;;;0.20;0.20;;;10.90;1.00;;;;;;5027164;28;20446;-74
2022/11/09 06:53:36;;;;;;;0.00;0.00;;;11.00;1.00;;;;;;5029358;28;20045;-76
2022/11/09 06:56:03;;;;;;;0.00;0.00;;;11.00;1.00;;;;;;5027471;28;20148;-73
2022/11/09 06:58:29;;;;;;;0.00;0.00;;;11.10;1.00;;;;;;5028553;28;20045;-72
2022/11/09 07:00:55;;;;;;;0.10;0.10;;;11.10;1.00;;;;;;5028935;28;20051;-73
2022/11/09 07:03:21;;;;;;;0.38;0.28;;;11.10;1.00;;;;;;5028341;28;20124;-74
2022/11/09 07:05:49;;;;;;;0.30;0.20;;;11.20;99.90;;;;;;5028550;28;20079;-75
2022/11/09 07:08:16;;;;;;;0.30;0.30;;;11.40;99.90;;;;;;5022601;28;20041;-74
2022/11/09 07:10:43;;;;;;;0.98;0.52;;;11.40;99.90;;;;;;5027973;28;20095;-75
2022/11/09 07:13:09;;;;;;;0.85;0.20;;;11.40;99.90;;;;;;5027755;28;20183;-74
2022/11/09 07:15:36;;;;;;;0.10;0.10;;;11.30;99.90;;;;;;5027935;28;20504;-73
2022/11/09 07:18:04;;;;;;;0.98;0.50;;;11.30;99.90;;;;;;5028099;28;20183;-75
2022/11/09 07:20:30;;;;;;;0.00;0.00;;;11.30;99.90;;;;;;5027483;28;20057;-74
2022/11/09 07:22:56;;;;;;;0.00;0.00;;;11.20;99.90;;;;;;5027651;28;20057;-73
2022/11/09 07:25:22;;;;;;;0.00;0.00;;;11.10;99.90;;;;;;5028614;28;20041;-74
2022/11/09 07:27:48;;;;;;;0.00;0.00;;;11.10;99.90;;;;;;5026608;28;20408;-72
2022/11/09 07:30:19;;;;;;;0.00;0.00;;;11.00;99.90;;;;;;5026990;28;20102;-74
2022/11/09 07:32:51;;;;;;;0.10;0.10;;;11.00;99.90;;;;;;5025755;28;20061;-72
2022/11/09 07:35:19;;;;;;;0.38;0.38;;;11.00;99.90;;;;;;5025259;28;20065;-72
2022/11/09 07:37:45;;;;;;;0.20;0.15;;;12.00;99.90;;;;;;5027175;28;20037;-73
2022/11/09 07:40:11;;;;;;;0.00;0.00;;;11.20;99.90;;;;;;5028896;28;20045;-72
2022/11/09 07:42:37;;;;;;;0.00;0.00;;;11.10;99.90;;;;;;5014050;28;20046;-74
2022/11/09 07:45:03;;;;;;;0.25;0.25;;;11.00;99.90;;;;;;5007746;28;20056;-72
2022/11/09 07:47:29;;;;;;;0.52;0.52;;;11.10;99.90;;;;;;5012897;28;20531;-72
2022/11/09 07:49:55;;;;;;;0.00;0.00;;;11.10;99.90;;;;;;5017385;28;20034;-74
2022/11/09 07:52:20;;;;;;;0.00;0.00;;;11.20;99.90;;;;;;5028435;28;20495;-73
2022/11/09 07:54:49;;;;;;;0.00;0.00;;;11.20;99.90;;;;;;5028446;28;20033;-72
2022/11/09 07:57:14;;;;;;;0.40;0.35;;;11.60;99.90;;;;;;5027936;28;20072;-73
2022/11/09 07:59:40;;;;;;;3.10;1.23;;;11.30;99.90;;;;;;5027078;28;20451;-75
2022/11/09 08:02:08;;;;;;;0.00;0.00;;;11.30;99.90;;;;;;5028135;28;20075;-73
2022/11/09 08:04:33;;;;;;;0.05;0.05;;;11.40;99.90;;;;;;5025976;28;20060;-74
2022/11/09 08:07:02;;;;;;;1.15;0.25;;;11.40;99.90;;;;;;5027408;28;20101;-72
2022/11/09 08:09:34;;;;;;;0.10;0.10;;;11.40;99.90;;;;;;5028693;28;20107;-73
2022/11/09 08:11:59;;;;;;;0.00;0.00;;;11.50;99.90;;;;;;5027146;28;20484;-73
2022/11/09 08:14:25;;;;;;;0.55;0.52;;;11.60;99.90;;;;;;5027890;28;20085;-72
2022/11/09 08:16:51;;;;;;;0.38;0.38;;;11.60;99.90;;;;;;5020856;28;20136;-75
2022/11/09 08:19:17;;;;;;;1.05;0.40;;;11.70;99.90;;;;;;5022946;28;20053;-72
2022/11/09 08:21:42;;;;;;;0.28;0.28;;;11.70;71.40;;;;;;5027559;28;20513;-73
2022/11/09 08:24:08;;;;;;;0.13;0.13;;;11.70;99.90;;;;;;5026581;28;20107;-73
2022/11/09 08:26:36;;;;;;;0.03;0.03;;;11.90;99.90;;;;;;5027601;28;20484;-73
2022/11/09 08:29:01;;;;;;;6.03;2.10;;;11.70;99.90;;;;;;5027435;28;20164;-73
2022/11/09 08:31:27;;;;;;;0.00;0.00;;;11.70;99.90;;;;;;5026030;28;20117;-73
2022/11/09 08:33:53;;;;;;;2.08;0.75;;;11.80;39.90;;;;;;5026404;28;20519;-75
2022/11/09 08:36:19;;;;;;;0.00;0.00;;;11.80;1.00;;;;;;5026759;28;20042;-73
2022/11/09 08:38:45;;;;;;;4.10;1.33;;;11.90;1.00;;;;;;5028452;28;20095;-75
2022/11/09 08:41:12;;;;;;;1.13;0.98;;;11.90;1.00;;;;;;5027040;28;20046;-73
2022/11/09 08:43:38;;;;;;;0.00;0.00;;;12.00;1.00;;;;;;5027507;28;20101;-75
2022/11/09 08:46:04;;;;;;;0.38;0.30;;;12.20;99.90;;;;;;5026615;28;20104;-71
2022/11/09 08:48:30;;;;;;;0.00;0.00;;;12.10;99.90;;;;;;5026954;28;20122;-74
2022/11/09 08:50:57;;;;;;;0.00;0.00;;;12.10;99.90;;;;;;5026682;28;20723;-73
2022/11/09 08:53:25;;;;;;;0.28;0.20;;;12.10;99.90;;;;;;5024291;28;20052;-73
2022/11/09 08:55:51;;;;;;;1.27;0.88;;;12.20;99.90;;;;;;5026161;28;20041;-75
2022/11/09 08:58:18;;;;;;;0.00;0.00;;;12.20;99.90;;;;;;5025852;28;20522;-72
2022/11/09 09:00:44;;;;;;;1.45;0.30;;;12.20;99.90;;;;;;5029313;28;20064;-72
2022/11/09 09:03:10;;;;;;;6.88;0.52;;;12.30;99.90;;;;;;5031219;28;20049;-73
2022/11/09 09:05:36;;;;;;;1.20;0.30;;;12.30;99.90;;;;;;5030156;28;20053;-73
2022/11/09 09:08:03;;;;;;;2.45;1.15;;;12.30;99.90;;;;;;5030608;28;20048;-72
2022/11/09 09:10:31;;;;;;;0.00;0.00;;;12.40;99.90;;;;;;5031082;28;20033;-74
2022/11/09 09:12:57;;;;;;;0.90;0.30;;;12.50;99.90;;;;;;5030043;28;20128;-73
2022/11/09 09:15:23;;;;;;;0.00;0.00;;;12.50;99.90;;;;;;5030303;28;20113;-74
2022/11/09 09:17:49;;;;;;;1.23;0.40;;;12.50;99.90;;;;;;5030394;28;20069;-74
2022/11/09 09:20:16;;;;;;;0.10;0.10;;;12.50;99.90;;;;;;5030340;28;20150;-73
2022/11/09 09:22:41;;;;;;;25.48;2.70;;;12.60;99.90;;;;;;5029799;28;20559;-72
2022/11/09 09:25:08;;;;;;;0.50;0.40;;;12.70;99.90;;;;;;5028098;28;20136;-74
2022/11/09 09:27:34;;;;;;;0.05;0.05;;;12.70;99.90;;;;;;5028885;28;20076;-75
2022/11/09 09:29:59;;;;;;;0.03;0.03;;;12.80;74.50;;;;;;5026499;28;20042;-71
2022/11/09 09:32:25;;;;;;;1.30;1.08;;;12.90;1.00;;;;;;5026814;28;20115;-73
2022/11/09 09:34:51;;;;;;;2.08;0.90;;;13.00;99.90;;;;;;5026587;28;20151;-73
2022/11/09 09:37:17;;;;;;;0.00;0.00;;;13.00;99.90;;;;;;5026383;28;20099;-74
2022/11/09 09:39:43;;;;;;;5.15;1.65;;;13.00;1.00;;;;;;5026731;28;20096;-73
2022/11/09 09:42:18;;;;;;;0.32;0.10;;;13.10;99.90;;;;;;5027500;28;20052;-72
2022/11/09 09:44:53;;;;;;;0.67;0.43;;;13.10;99.90;;;;;;5025949;28;20042;-73
2022/11/09 09:47:27;;;;;;;0.00;0.00;;;13.10;99.90;;;;;;5027791;28;20292;-74
2022/11/09 09:50:10;;;;;;;2.05;0.75;;;13.20;99.90;;;;;;5027431;28;20047;-73
2022/11/09 09:52:46;;;;;;;0.13;0.10;;;13.40;99.90;;;;;;5027719;28;20057;-74
2022/11/09 09:55:30;;;;;;;2.30;0.65;;;13.50;12.40;;;;;;5017236;28;20500;-73
2022/11/09 09:58:04;;;;;;;0.00;0.00;;;13.40;1.00;;;;;;5017829;28;20048;-73
2022/11/09 10:00:32;;;;;;;0.20;0.20;;;13.40;99.20;;;;;;5017430;28;20053;-73
2022/11/09 10:02:59;;;;;;;0.10;0.10;;;13.60;1.00;;;;;;5026393;28;20073;-74
2022/11/09 10:05:52;;;;;;;0.05;0.05;;;14.50;33.40;;;;;;5027017;28;20053;-74
2022/11/09 10:08:46;;;;;;;4.30;1.13;;;13.40;1.00;;;;;;5026422;28;20054;-73
2022/11/09 10:11:38;;;;;;;8.57;1.75;;;13.40;1.00;;;;;;5025507;28;20492;-74
2022/11/09 10:14:23;;;;;;;2.85;0.93;;;13.40;99.90;;;;;;5021615;28;20056;-73
2022/11/09 10:16:58;;;;;;;0.70;0.68;;;13.60;1.00;;;;;;5026789;28;20051;-73
2022/11/09 10:19:54;;;;;;;1.77;1.05;;;13.70;1.00;;;;;;5027791;28;20126;-73
2022/11/09 10:22:32;;;;;;;0.40;0.40;;;13.90;99.90;;;;;;5027817;28;20048;-75
2022/11/09 10:25:21;;;;;;;0.25;0.20;;;14.20;99.90;;;;;;5028158;28;20064;-72
2022/11/09 10:28:07;;;;;;;1.55;0.80;;;14.00;99.90;;;;;;5028192;28;20053;-75
2022/11/09 10:30:33;;;;;;;0.73;0.28;;;14.10;99.60;;;;;;5027130;28;20049;-74
2022/11/09 10:33:14;;;;;;;0.85;0.65;;;14.10;99.90;;;;;;5026798;28;20097;-73
2022/11/09 10:35:55;;;;;;;1.65;0.77;;;14.10;99.90;;;;;;5027341;28;20033;-72
2022/11/09 10:38:27;;;;;;;0.10;0.10;;;14.20;99.90;;;;;;5028496;28;20053;-73
2022/11/09 10:41:01;;;;;;;0.20;0.20;;;14.30;99.90;;;;;;5027949;28;20483;-72
2022/11/09 10:43:27;;;;;;;0.43;0.30;;;14.40;43.80;;;;;;5027084;28;20128;-74
2022/11/09 10:46:20;;;;;;;0.20;0.20;;;14.50;1.00;;;;;;5027593;28;20200;-73
2022/11/09 10:48:46;;;;;;;8.25;2.47;;;14.50;1.00;;;;;;5025577;28;20512;-74
2022/11/09 10:51:33;;;;;;;0.45;0.45;;;14.60;99.90;;;;;;5024457;28;20055;-73
2022/11/09 10:54:22;;;;;;;0.10;0.10;;;14.70;99.90;;;;;;5025112;28;20049;-74
2022/11/09 10:56:51;;;;;;;1.33;0.68;;;14.70;99.90;;;;;;5025154;28;20049;-74
2022/11/09 10:59:28;;;;;;;0.95;0.40;;;14.60;99.90;;;;;;5024994;28;20045;-74
2022/11/09 11:01:54;;;;;;;0.00;0.00;;;14.60;99.90;;;;;;5024319;28;20141;-75
2022/11/09 11:04:23;;;;;;;0.10;0.10;;;14.60;99.90;;;;;;5021801;28;20555;-75
2022/11/09 11:06:49;;;;;;;0.20;0.20;;;14.50;99.90;;;;;;5024112;28;20132;-75
2022/11/09 11:09:18;;;;;;;0.98;0.68;;;14.70;1.00;;;;;;5024972;28;20045;-75
2022/11/09 11:11:44;;;;;;;3.65;0.47;;;14.90;99.90;;;;;;5024511;28;20053;-75
2022/11/09 11:14:32;;;;;;;1.17;0.80;;;14.90;99.90;;;;;;5023960;28;20045;-73
2022/11/09 11:16:58;;;;;;;0.35;0.35;;;15.00;88.80;;;;;;5024957;28;20042;-74
2022/11/09 11:19:32;;;;;;;0.00;0.00;;;15.00;93.30;;;;;;5024086;28;20052;-74
2022/11/09 11:22:10;;;;;;;4.72;1.17;;;14.90;54.00;;;;;;5023950;28;20053;-74
2022/11/09 11:24:57;;;;;;;0.00;0.00;;;14.90;1.00;;;;;;5025314;28;20435;-74
2022/11/09 11:27:29;;;;;;;0.00;0.00;;;14.90;99.90;;;;;;5025071;28;20060;-74
2022/11/09 11:29:59;;;;;;;0.15;0.15;;;14.80;99.90;;;;;;5024414;28;20053;-76
2022/11/09 11:32:25;;;;;;;0.00;0.00;;;14.80;1.00;;;;;;5024926;28;20133;-72
2022/11/09 11:34:51;;;;;;;0.00;0.00;;;14.70;1.00;;;;;;5024625;28;20821;-75
2022/11/09 11:37:34;;;;;;;0.30;0.28;;;14.70;1.00;;;;;;5025478;28;20075;-75
2022/11/09 11:40:14;;;;;;;0.45;0.28;;;14.50;1.00;;;;;;5024758;28;20045;-73
2022/11/09 11:42:54;;;;;;;0.00;0.00;;;14.60;18.60;;;;;;5024997;28;20050;-74
2022/11/09 11:46:07;;;;;;;0.55;0.55;;;14.60;50.60;;;;;;5024265;28;20116;-73
2022/11/09 11:48:54;;;;;;;0.10;0.08;;;14.60;1.00;;;;;;5020673;28;20049;-74
2022/11/09 11:51:38;;;;;;;0.47;0.47;;;14.70;1.00;;;;;;5022977;28;20057;-74
2022/11/09 11:54:25;;;;;;;0.30;0.20;;;14.70;99.90;;;;;;5024558;28;20118;-74
2022/11/09 11:57:06;;;;;;;1.70;0.95;;;14.70;99.90;;;;;;5026606;28;20124;-75
2022/11/09 11:59:48;;;;;;;0.35;0.35;;;14.80;99.90;;;;;;5024336;28;20507;-73
2022/11/09 12:03:13;;;;;;;0.70;0.30;;;15.00;1.00;;;;;;5026729;28;20069;-75
2022/11/09 12:06:02;;;;;;;1.67;1.45;;;15.00;1.00;;;;;;4981606;28;20066;-75
2022/11/09 12:08:46;;;;;;;1.02;0.20;;;14.90;1.00;;;;;;4981625;28;20065;-74
2022/11/09 12:11:35;;;;;;;0.10;0.10;;;14.90;99.90;;;;;;5018582;28;20053;-73
2022/11/09 12:14:50;;;;;;;0.00;0.00;;;14.70;99.90;;;;;;5015825;28;20054;-73
2022/11/09 12:17:38;;;;;;;0.00;0.00;;;14.50;1.00;;;;;;4980779;28;20345;-75
2022/11/09 12:20:15;;;;;;;0.20;0.17;;;14.40;1.00;;;;;;4982074;28;20054;-74
2022/11/09 12:23:08;;;;;;;0.10;0.03;;;14.30;48.40;;;;;;4996781;28;20062;-73
2022/11/09 12:25:41;;;;;;;1.38;1.00;;;14.30;99.10;;;;;;5003305;28;20049;-74
2022/11/09 12:29:00;;;;;;;0.10;0.10;;;14.20;1.00;;;;;;5003805;28;20065;-73
2022/11/09 12:31:41;;;;;;;0.20;0.20;;;14.20;1.00;;;;;;5003054;28;20046;-75
2022/11/09 12:34:36;;;;;;;0.35;0.30;;;14.00;99.90;;;;;;5005754;28;20045;-75
2022/11/09 12:37:11;;;;;;;1.20;0.82;;;13.80;1.00;;;;;;5009522;28;20461;-74
2022/11/09 12:39:49;;;;;;;0.43;0.32;;;13.40;99.90;;;;;;5006437;28;20076;-72
2022/11/09 12:42:20;;;;;;;0.52;0.52;;;13.30;27.70;;;;;;5009479;28;20056;-73
2022/11/09 12:45:05;;;;;;;2.03;0.82;;;13.30;66.30;;;;;;5011650;28;20128;-73
2022/11/09 12:48:01;;;;;;;0.40;0.32;;;13.40;99.90;;;;;;5011741;28;20107;-73
2022/11/09 12:50:36;;;;;;;0.00;0.00;;;13.70;99.90;;;;;;4995615;28;20141;-75
2022/11/09 12:53:03;;;;;;;0.73;0.52;;;13.80;1.00;;;;;;5007745;28;20101;-74
2022/11/09 12:56:07;;;;;;;0.00;0.00;;;13.80;1.00;;;;;;5016533;28;20053;-75
2022/11/09 12:58:35;;;;;;;0.75;0.57;;;13.70;1.00;;;;;;5006797;28;20049;-72
2022/11/09 13:01:03;;;;;;;0.32;0.15;;;13.90;99.90;;;;;;5006735;28;20056;-75
2022/11/09 13:03:32;;;;;;;0.32;0.25;;;14.20;99.90;;;;;;5005325;28;20053;-77
2022/11/09 13:06:35;;;;;;;0.10;0.10;;;13.80;99.90;;;;;;5007288;28;20041;-75
2022/11/09 13:09:03;;;;;;;2.85;0.80;;;13.70;99.90;;;;;;4998171;28;20421;-74
2022/11/09 13:11:46;;;;;;;0.93;0.45;;;13.60;99.90;;;;;;5006359;28;20100;-75